首页
METAR-TAF:

METAR-TAF

机场 :

Maragheh, 伊朗

纬度: 37-20-55N, 经度: 046-07-35E, 海拔: 1340米

当前天气观测

该预报发布于41分钟前的07:00 UTC
风速6节,风向南转南东
温度 13°C
湿度 51%
气压 1016 hPa
能见度10公里或以上
少量云层高于3500英尺, 塔状积云.
多云层高于19000英尺

METAR: OITM 030700Z 16006KT 9999 FEW035TCU BKN190 13/03 Q1016

时间: 12:11 (07:41 UTC)


TAF: 丢失

超过4000个机场的气象观测和天气预报(METAR&TAF报告)。

可查询的气象台以黄色和红色小点在地图上表示。

将鼠标移到小点上方,可查看气象台名称。

然后点击查看天气观测和预报。

如需切换地图:点击带黑十字的绿色按钮放大地图;点击带横线的绿色按钮缩小地图;或者点击绿色箭头查看邻近地区的地图。


METAR-TAF: